createdAt,value
2022-09-13T00:01:47.697Z,3.57
2022-09-13T00:04:49.171Z,3.57
2022-09-13T00:07:50.736Z,3.07
2022-09-13T00:10:52.134Z,3.23
2022-09-13T00:13:54.383Z,3.33
2022-09-13T00:16:55.761Z,3.33
2022-09-13T00:19:57.230Z,3.00
2022-09-13T00:22:58.596Z,3.03
2022-09-13T00:26:09.282Z,3.00
2022-09-13T00:29:10.641Z,3.10
2022-09-13T00:32:12.326Z,3.43
2022-09-13T00:35:13.722Z,3.27
2022-09-13T00:38:15.106Z,3.20
2022-09-13T00:41:18.646Z,3.33
2022-09-13T00:44:56.044Z,3.33
2022-09-13T00:48:03.085Z,3.53
2022-09-13T00:51:07.177Z,3.20
2022-09-13T00:54:09.584Z,3.03
2022-09-13T00:57:13.984Z,3.40
2022-09-13T01:00:19.284Z,3.30
2022-09-13T01:03:23.748Z,3.10
2022-09-13T01:06:32.940Z,3.47
2022-09-13T01:09:38.132Z,3.00
2022-09-13T01:12:48.363Z,3.40
2022-09-13T01:15:49.999Z,3.10
2022-09-13T01:18:51.369Z,3.30
2022-09-13T01:21:58.764Z,3.47
2022-09-13T01:25:28.227Z,3.17
2022-09-13T01:28:41.288Z,3.40
2022-09-13T01:31:50.093Z,3.40
2022-09-13T01:35:06.331Z,3.20
2022-09-13T01:38:15.042Z,3.30
2022-09-13T01:41:32.695Z,3.27
2022-09-13T01:44:55.147Z,3.07
2022-09-13T01:48:02.901Z,3.30
2022-09-13T01:51:13.465Z,3.20
2022-09-13T01:54:45.358Z,3.40
2022-09-13T01:58:11.401Z,3.30
2022-09-13T02:01:18.419Z,3.27
2022-09-13T02:04:24.429Z,3.70
2022-09-13T02:07:40.749Z,3.37
2022-09-13T02:10:48.482Z,3.37
2022-09-13T02:14:07.217Z,3.40
2022-09-13T02:17:13.514Z,3.40
2022-09-13T02:20:25.806Z,3.23
2022-09-13T02:23:37.860Z,3.47
2022-09-13T02:26:41.737Z,3.17
2022-09-13T02:29:47.306Z,3.23
2022-09-13T02:32:52.614Z,3.20
2022-09-13T02:36:04.341Z,3.70
2022-09-13T02:39:13.054Z,3.40
2022-09-13T02:42:19.659Z,3.37
2022-09-13T02:45:25.874Z,3.50
2022-09-13T02:48:56.477Z,3.70
2022-09-13T02:52:04.991Z,3.57
2022-09-13T02:55:38.163Z,3.60
2022-09-13T02:59:13.325Z,3.33
2022-09-13T03:02:19.156Z,3.33
2022-09-13T03:05:20.596Z,3.20
2022-09-13T03:08:23.315Z,3.67
2022-09-13T03:11:49.402Z,3.10
2022-09-13T03:15:18.732Z,3.50
2022-09-13T03:18:48.261Z,3.50
2022-09-13T03:22:15.753Z,3.50
2022-09-13T03:25:39.430Z,3.70
2022-09-13T03:28:54.873Z,3.50
2022-09-13T03:32:03.239Z,3.67
2022-09-13T03:35:22.709Z,3.40
2022-09-13T03:38:38.284Z,3.80
2022-09-13T03:41:46.520Z,3.50
2022-09-13T03:44:50.519Z,3.73
2022-09-13T03:47:52.411Z,3.37
2022-09-13T03:50:54.244Z,3.40
2022-09-13T03:54:00.579Z,3.60
2022-09-13T03:57:22.314Z,3.60
2022-09-13T04:00:24.111Z,3.83
2022-09-13T04:03:27.336Z,3.90
2022-09-13T04:06:28.717Z,3.60
2022-09-13T04:09:31.407Z,3.70
2022-09-13T04:12:32.776Z,3.50
2022-09-13T04:15:34.156Z,3.83
2022-09-13T04:18:35.613Z,4.17
2022-09-13T04:21:38.068Z,3.40
2022-09-13T04:24:39.919Z,3.80
2022-09-13T04:27:41.367Z,4.20
2022-09-13T04:30:46.858Z,3.87
2022-09-13T04:33:49.448Z,3.40
2022-09-13T04:36:52.400Z,3.60
2022-09-13T04:39:53.820Z,4.03
2022-09-13T04:42:55.219Z,3.80
2022-09-13T04:46:00.988Z,3.87
2022-09-13T04:49:03.111Z,3.70
2022-09-13T04:52:04.474Z,3.80
2022-09-13T04:55:06.812Z,3.73
2022-09-13T04:58:08.193Z,3.90
2022-09-13T05:01:10.693Z,3.67
2022-09-13T05:04:12.419Z,4.30
2022-09-13T05:07:13.786Z,3.47
2022-09-13T05:10:19.431Z,4.33
2022-09-13T05:13:21.125Z,4.07
2022-09-13T05:16:33.197Z,3.83
2022-09-13T05:19:34.993Z,3.63
2022-09-13T05:22:36.359Z,3.80
2022-09-13T05:25:37.737Z,4.20
2022-09-13T05:28:39.151Z,3.70
2022-09-13T05:31:42.209Z,4.00
2022-09-13T05:34:44.337Z,3.77
2022-09-13T05:37:45.780Z,3.80
2022-09-13T05:40:47.572Z,4.70
2022-09-13T05:43:49.129Z,3.53
2022-09-13T05:46:50.487Z,3.90
2022-09-13T05:50:09.380Z,4.00
2022-09-13T05:53:12.025Z,4.10
2022-09-13T05:56:16.912Z,3.83
2022-09-13T05:59:18.339Z,3.87
2022-09-13T06:02:19.743Z,4.20
2022-09-13T06:05:21.182Z,4.10
2022-09-13T06:08:24.096Z,4.37
2022-09-13T06:11:26.678Z,4.80
2022-09-13T06:14:28.104Z,4.33
2022-09-13T06:17:29.464Z,4.30
2022-09-13T06:20:30.977Z,5.17
2022-09-13T06:23:32.349Z,4.73
2022-09-13T06:26:33.801Z,4.07
2022-09-13T06:29:35.163Z,4.00
2022-09-13T06:32:36.528Z,4.37
2022-09-13T06:35:37.945Z,4.47
2022-09-13T06:38:39.351Z,4.77
2022-09-13T06:41:40.945Z,4.10
2022-09-13T06:44:42.315Z,4.40
2022-09-13T06:47:43.679Z,3.83
2022-09-13T06:50:45.735Z,3.40
2022-09-13T06:53:48.437Z,3.50
2022-09-13T06:56:49.870Z,3.70
2022-09-13T06:59:51.363Z,4.23
2022-09-13T07:02:52.786Z,3.60
2022-09-13T07:05:54.177Z,4.03
2022-09-13T07:08:57.220Z,3.93
2022-09-13T07:11:58.608Z,4.00
2022-09-13T07:14:59.970Z,3.63
2022-09-13T07:18:01.409Z,4.00
2022-09-13T07:21:08.346Z,4.30
2022-09-13T07:24:10.418Z,3.87
2022-09-13T07:27:12.784Z,4.00
2022-09-13T07:30:14.523Z,3.87
2022-09-13T07:33:16.405Z,4.10
2022-09-13T07:36:17.791Z,4.13
2022-09-13T07:39:22.279Z,3.80
2022-09-13T07:42:23.978Z,3.90
2022-09-13T07:45:25.451Z,3.93
2022-09-13T07:48:33.255Z,3.70
2022-09-13T07:51:36.942Z,3.63
2022-09-13T07:54:38.347Z,3.40
2022-09-13T07:57:39.719Z,4.10
2022-09-13T08:00:41.080Z,3.40
2022-09-13T08:03:42.711Z,3.40
2022-09-13T08:06:44.686Z,3.80
2022-09-13T08:09:46.191Z,3.70
2022-09-13T08:12:50.270Z,3.70
2022-09-13T08:15:51.734Z,4.13
2022-09-13T08:18:55.030Z,4.07
2022-09-13T08:21:56.419Z,3.70
2022-09-13T08:24:57.798Z,3.60
2022-09-13T08:27:59.229Z,3.63
2022-09-13T08:31:11.658Z,3.53
2022-09-13T08:34:15.067Z,3.70
2022-09-13T08:37:16.483Z,3.80
2022-09-13T08:40:17.978Z,3.33
2022-09-13T08:43:48.611Z,4.10
2022-09-13T08:46:50.977Z,3.77
2022-09-13T08:50:00.042Z,4.13
2022-09-13T08:53:26.332Z,3.70
2022-09-13T08:56:50.952Z,3.57
2022-09-13T09:00:07.908Z,3.67
2022-09-13T09:03:38.437Z,3.20
2022-09-13T09:06:40.093Z,3.50
2022-09-13T09:09:53.735Z,3.30
2022-09-13T09:12:59.521Z,3.40
2022-09-13T09:16:30.422Z,3.20
2022-09-13T09:19:36.309Z,3.13
2022-09-13T09:22:37.807Z,3.10
2022-09-13T09:25:39.440Z,3.10
2022-09-13T09:28:40.822Z,2.73
2022-09-13T09:32:03.275Z,3.17
2022-09-13T09:35:16.000Z,2.90
2022-09-13T09:38:23.170Z,3.03
2022-09-13T09:41:31.527Z,2.80
2022-09-13T09:44:34.447Z,2.97
2022-09-13T09:47:46.012Z,3.20
2022-09-13T09:50:51.776Z,3.20
2022-09-13T09:54:01.889Z,2.97
2022-09-13T09:57:03.562Z,3.20
2022-09-13T10:00:12.610Z,3.07
2022-09-13T10:03:19.784Z,3.00
2022-09-13T10:06:27.624Z,2.90
2022-09-13T10:09:29.054Z,2.80
2022-09-13T10:12:34.206Z,2.87
2022-09-13T10:15:35.791Z,3.00
2022-09-13T10:18:44.558Z,2.90
2022-09-13T10:22:00.045Z,2.70
2022-09-13T10:25:29.657Z,2.93
2022-09-13T10:28:34.845Z,2.70
2022-09-13T10:31:44.057Z,3.40
2022-09-13T10:34:46.544Z,2.80
2022-09-13T10:37:48.045Z,2.90
2022-09-13T10:40:49.434Z,2.90
2022-09-13T10:44:09.608Z,2.53
2022-09-13T10:47:19.783Z,2.40
2022-09-13T10:50:24.605Z,2.30
2022-09-13T10:53:41.200Z,2.73
2022-09-13T10:56:46.078Z,2.47
2022-09-13T10:59:54.625Z,2.80
2022-09-13T11:03:13.400Z,2.60
2022-09-13T11:06:33.062Z,2.50
2022-09-13T11:09:37.961Z,2.73
2022-09-13T11:12:46.424Z,2.40
2022-09-13T11:15:57.775Z,2.30
2022-09-13T11:19:14.693Z,2.50
2022-09-13T11:22:25.406Z,2.53
2022-09-13T11:25:40.308Z,2.40
2022-09-13T11:29:00.329Z,2.50
2022-09-13T11:32:07.546Z,2.40
2022-09-13T11:35:27.781Z,2.57
2022-09-13T11:38:49.614Z,2.57
2022-09-13T11:42:01.061Z,2.30
2022-09-13T11:45:23.993Z,2.30
2022-09-13T11:48:33.161Z,2.17
2022-09-13T11:51:57.884Z,2.20
2022-09-13T11:54:59.230Z,2.20
2022-09-13T11:58:15.460Z,2.50
2022-09-13T12:01:27.498Z,2.30
2022-09-13T12:04:38.642Z,2.40
2022-09-13T12:07:51.405Z,2.10
2022-09-13T12:11:18.843Z,2.33
2022-09-13T12:14:25.565Z,2.20
2022-09-13T12:17:40.352Z,2.30
2022-09-13T12:20:58.854Z,2.50
2022-09-13T12:24:00.173Z,2.20
2022-09-13T12:27:11.791Z,2.57
2022-09-13T12:30:17.400Z,2.43
2022-09-13T12:33:19.715Z,2.53
2022-09-13T12:36:39.429Z,2.60
2022-09-13T12:40:09.606Z,2.92
2022-09-13T12:43:14.006Z,2.40
2022-09-13T12:46:26.827Z,2.40
2022-09-13T12:49:33.949Z,2.30
2022-09-13T12:52:52.018Z,2.40
2022-09-13T12:56:31.861Z,2.20
2022-09-13T13:00:07.956Z,2.13
2022-09-13T13:03:11.862Z,2.03
2022-09-13T13:06:35.157Z,2.10
2022-09-13T13:09:42.405Z,1.93
2022-09-13T13:12:43.844Z,2.60
2022-09-13T13:15:49.749Z,2.10
2022-09-13T13:18:54.124Z,2.10
2022-09-13T13:21:55.640Z,2.13
2022-09-13T13:24:57.146Z,2.08
2022-09-13T13:27:59.083Z,2.20
2022-09-13T13:31:00.703Z,2.43
2022-09-13T13:34:14.320Z,2.50
2022-09-13T13:37:15.637Z,2.25
2022-09-13T13:40:21.599Z,2.13
2022-09-13T13:43:32.113Z,2.17
2022-09-13T13:46:33.629Z,2.20
2022-09-13T13:49:40.978Z,2.22
2022-09-13T13:52:48.654Z,2.15
2022-09-13T13:56:07.569Z,1.90
2022-09-13T13:59:16.346Z,1.90
2022-09-13T14:02:26.054Z,1.77
2022-09-13T14:05:49.931Z,1.80
2022-09-13T14:09:15.763Z,1.80
2022-09-13T14:12:36.976Z,2.03
2022-09-13T14:15:48.175Z,1.98
2022-09-13T14:19:17.442Z,1.88
2022-09-13T14:22:26.523Z,1.80
2022-09-13T14:25:28.452Z,1.90
2022-09-13T14:28:32.183Z,1.70
2022-09-13T14:31:33.806Z,1.88
2022-09-13T14:34:38.666Z,2.35
2022-09-13T14:37:40.304Z,2.22
2022-09-13T14:40:41.778Z,2.10
2022-09-13T14:43:45.231Z,2.00
2022-09-13T14:46:54.444Z,1.63
2022-09-13T14:50:22.249Z,1.77
2022-09-13T14:53:34.182Z,1.80
2022-09-13T14:56:45.268Z,2.20
2022-09-13T14:59:50.112Z,1.90
2022-09-13T15:02:54.533Z,2.00
2022-09-13T15:05:58.505Z,1.83
2022-09-13T15:09:12.199Z,2.10
2022-09-13T15:12:28.222Z,1.63
2022-09-13T15:15:36.171Z,1.80
2022-09-13T15:18:37.589Z,1.80
2022-09-13T15:21:39.033Z,1.90
2022-09-13T15:24:46.280Z,1.88
2022-09-13T15:27:48.744Z,2.22
2022-09-13T15:30:51.519Z,2.00
2022-09-13T15:34:17.927Z,1.83
2022-09-13T15:37:29.361Z,1.90
2022-09-13T15:40:42.888Z,2.00
2022-09-13T15:43:44.974Z,2.00
2022-09-13T15:47:10.971Z,2.13
2022-09-13T15:50:20.856Z,2.30
2022-09-13T15:53:22.234Z,1.90
2022-09-13T15:56:35.395Z,2.20
2022-09-13T15:59:36.772Z,1.90
2022-09-13T16:02:38.204Z,1.70
2022-09-13T16:05:41.922Z,1.85
2022-09-13T16:08:43.347Z,1.95
2022-09-13T16:11:46.102Z,2.10
2022-09-13T16:14:47.624Z,2.05
2022-09-13T16:17:49.051Z,2.00
2022-09-13T16:20:50.945Z,2.00
2022-09-13T16:23:52.303Z,2.15
2022-09-13T16:26:53.849Z,2.00
2022-09-13T16:29:55.220Z,2.00
2022-09-13T16:32:56.727Z,1.90
2022-09-13T16:36:02.161Z,1.90
2022-09-13T16:39:04.754Z,1.83
2022-09-13T16:42:06.594Z,2.05
2022-09-13T16:45:10.220Z,1.92
2022-09-13T16:48:12.017Z,2.15
2022-09-13T16:51:13.414Z,2.17
2022-09-13T16:54:14.825Z,2.35
2022-09-13T16:57:16.280Z,1.90
2022-09-13T17:00:19.961Z,2.10
2022-09-13T17:03:21.506Z,1.98
2022-09-13T17:06:24.535Z,1.92
2022-09-13T17:09:30.793Z,1.95
2022-09-13T17:12:32.945Z,2.10
2022-09-13T17:15:39.090Z,2.00
2022-09-13T17:18:40.689Z,2.28
2022-09-13T17:21:42.818Z,2.08
2022-09-13T17:24:44.648Z,2.15
2022-09-13T17:27:46.034Z,2.20
2022-09-13T17:30:47.468Z,2.30
2022-09-13T17:33:49.875Z,2.50
2022-09-13T17:36:52.248Z,2.22
2022-09-13T17:39:53.694Z,2.50
2022-09-13T17:42:55.406Z,2.00
2022-09-13T17:45:57.357Z,2.47
2022-09-13T17:48:59.812Z,2.25
2022-09-13T17:52:02.112Z,2.38
2022-09-13T17:55:04.640Z,2.13
2022-09-13T17:58:06.025Z,2.43
2022-09-13T18:01:09.538Z,2.20
2022-09-13T18:04:12.361Z,2.83
2022-09-13T18:07:13.780Z,2.73
2022-09-13T18:10:32.568Z,6.93
2022-09-13T18:13:37.416Z,3.50
2022-09-13T18:16:38.884Z,4.17
2022-09-13T18:19:46.298Z,4.47
2022-09-13T18:22:48.272Z,4.23
2022-09-13T18:26:03.015Z,4.83
2022-09-13T18:29:09.544Z,4.10
2022-09-13T18:32:10.969Z,8.13
2022-09-13T18:35:12.339Z,4.87
2022-09-13T18:38:13.833Z,4.03
2022-09-13T18:41:18.062Z,3.70
2022-09-13T18:44:19.646Z,5.23
2022-09-13T18:47:21.103Z,5.03
2022-09-13T18:50:22.463Z,4.03
2022-09-13T18:53:34.130Z,3.60
2022-09-13T18:56:36.538Z,3.90
2022-09-13T18:59:37.905Z,3.73
2022-09-13T19:02:56.590Z,3.60
2022-09-13T19:06:20.089Z,3.80
2022-09-13T19:09:22.777Z,4.40
2022-09-13T19:12:24.303Z,4.00
2022-09-13T19:15:25.817Z,4.33
2022-09-13T19:18:28.197Z,4.67
2022-09-13T19:21:31.685Z,3.63
2022-09-13T19:24:33.721Z,4.37
2022-09-13T19:27:35.125Z,4.30
2022-09-13T19:30:36.534Z,4.27
2022-09-13T19:33:39.538Z,4.00
2022-09-13T19:36:42.895Z,4.20
2022-09-13T19:39:45.512Z,4.70
2022-09-13T19:42:46.985Z,4.10
2022-09-13T19:46:05.186Z,5.50
2022-09-13T19:49:08.349Z,5.50
2022-09-13T19:52:09.831Z,6.40
2022-09-13T19:55:11.266Z,5.00
2022-09-13T19:58:13.856Z,4.50
2022-09-13T20:01:21.103Z,3.80
2022-09-13T20:04:23.598Z,4.30
2022-09-13T20:07:25.277Z,4.40
2022-09-13T20:10:27.268Z,4.87
2022-09-13T20:13:28.624Z,4.10
2022-09-13T20:16:33.673Z,4.57
2022-09-13T20:19:46.412Z,4.50
2022-09-13T20:22:51.011Z,5.10
2022-09-13T20:25:52.647Z,4.90
2022-09-13T20:28:59.958Z,5.40
2022-09-13T20:32:02.186Z,4.33
2022-09-13T20:35:03.865Z,4.97
2022-09-13T20:38:05.523Z,4.57
2022-09-13T20:41:10.450Z,4.73
2022-09-13T20:44:12.092Z,4.70
2022-09-13T20:47:13.466Z,4.53
2022-09-13T20:50:15.224Z,4.70
2022-09-13T20:53:16.589Z,4.93
2022-09-13T20:56:18.653Z,4.63
2022-09-13T20:59:21.208Z,4.50
2022-09-13T21:02:22.605Z,4.80
2022-09-13T21:05:24.140Z,4.40
2022-09-13T21:08:43.859Z,5.20
2022-09-13T21:11:45.326Z,5.20
2022-09-13T21:14:46.745Z,5.07
2022-09-13T21:17:48.121Z,5.60
2022-09-13T21:21:00.483Z,4.93
2022-09-13T21:24:04.252Z,5.17
2022-09-13T21:27:06.833Z,4.87
2022-09-13T21:30:08.671Z,5.57
2022-09-13T21:33:10.316Z,5.10
2022-09-13T21:36:13.010Z,4.70
2022-09-13T21:39:16.267Z,5.63
2022-09-13T21:42:17.737Z,5.30
2022-09-13T21:45:19.105Z,5.57
2022-09-13T21:48:22.150Z,5.10
2022-09-13T21:51:35.210Z,5.50
2022-09-13T21:54:36.665Z,5.03
2022-09-13T21:57:38.033Z,5.50
2022-09-13T22:00:39.518Z,5.27
2022-09-13T22:03:43.750Z,5.10
2022-09-13T22:06:46.932Z,5.17
2022-09-13T22:09:48.283Z,4.70
2022-09-13T22:12:49.646Z,5.23
2022-09-13T22:15:51.033Z,5.40
2022-09-13T22:18:55.671Z,5.97
2022-09-13T22:21:59.191Z,5.50
2022-09-13T22:25:00.903Z,5.60
2022-09-13T22:28:02.543Z,5.50
2022-09-13T22:31:19.008Z,5.47
2022-09-13T22:34:23.909Z,5.30
2022-09-13T22:37:25.321Z,4.90
2022-09-13T22:40:27.509Z,5.13
2022-09-13T22:43:29.019Z,5.33
2022-09-13T22:46:34.299Z,4.80
2022-09-13T22:49:35.675Z,5.30
2022-09-13T22:52:37.051Z,4.63
2022-09-13T22:55:38.409Z,4.30
2022-09-13T22:58:40.448Z,4.60
2022-09-13T23:01:42.064Z,3.80
2022-09-13T23:04:43.489Z,2.87
2022-09-13T23:07:44.858Z,2.47
2022-09-13T23:10:46.786Z,2.40
2022-09-13T23:13:49.963Z,2.20
2022-09-13T23:16:52.229Z,1.90
2022-09-13T23:19:53.676Z,2.17
2022-09-13T23:22:55.027Z,2.07
2022-09-13T23:26:06.436Z,1.60
2022-09-13T23:29:15.369Z,2.10
2022-09-13T23:32:16.938Z,2.03
2022-09-13T23:35:18.430Z,2.17
2022-09-13T23:38:19.865Z,2.10
2022-09-13T23:41:22.285Z,2.30
2022-09-13T23:44:24.185Z,2.60
2022-09-13T23:47:25.563Z,2.20
2022-09-13T23:50:26.927Z,2.20
2022-09-13T23:53:28.606Z,2.40
2022-09-13T23:56:31.237Z,2.30
2022-09-13T23:59:32.823Z,3.20
